Alfred, Maine
Current Conditions -  °F | °C
As of 1:55 PM on Monday 20 Oct 2014 (Local Time) from KSFM Reporting Station
Clear Clear  
Wind Chill: 52°   Ceiling: Unl
Heat Index: 52°   Visibility: 10mi
Dew Point: 27°   Wind: 15mph
Humidity: 38%   Direction: 230°SW
Pressure: 29.95"   Gusts: 18mph
Location:  43.48°N, 70.72°W
Report Text: KSFM 201755Z AUTO 23013G16KT 10SM CLR 11/M03 A2995 RMK AO1 10110 20030 57014
Loading
Personal Weather Stations






























Interactive Weather Map
Tropical Storm Tracking
New forecast layout! Learn more

10-Day Weather Forecast

Advertisements
Track Severe Weather on mobile